Latest Weather Observations for Hogan Island

IDT60801

Issued at 11:31 pm EST Wednesday 4 May 2016 (issued every 30 minutes, with the page automatically refreshed every 10 minutes)

About weather observations | Map of weather stations | Latest weather observations for TAS | Other Formats
Station Details ID: 200838 Name: HOGAN ISLAND Lat: -39.22 Lon: 146.98 Height: 116.0 m
Data from the previous 72 hours. | See also: Recent months at Hogan Island
Date/Time
EST
Temp
°C
App
Temp
°C
Dew
Point
Rel
Hum
%
Delta-T
°C
Wind Press
QNH
hPa
Press
MSL
hPa
Rain
since 9 am
mm
Dir
 
Spd
km/h
Gust
km/h
Spd
kts
Gust
kts
04/11:30pm 14.3 5.6 7.6 64 3.3 NNW 43 54 23 29 1015.1 - 0.0
04/11:00pm 14.4 5.6 7.2 62 3.5 NNW 43 56 23 30 1015.4 - 0.0
04/10:30pm 14.4 6.0 7.5 63 3.4 NNW 41 52 22 28 1015.5 - 0.0
04/10:00pm 14.4 4.9 6.7 60 3.8 NNW 46 57 25 31 1015.5 - 0.0
04/09:30pm 14.3 4.9 7.1 62 3.5 NW 46 56 25 30 1015.6 - 0.0
04/09:00pm 14.2 4.8 7.0 62 3.5 NNW 46 59 25 32 1015.4 1015.4 0.0
04/08:30pm 13.9 3.2 6.3 60 3.7 NW 52 65 28 35 1015.1 - 0.0
04/08:00pm 14.5 5.5 7.1 61 3.6 NW 44 54 24 29 1015.1 - 0.0
04/07:30pm 14.3 5.5 7.1 62 3.5 NW 43 54 23 29 1014.7 - 0.0
04/07:00pm 14.0 6.2 6.6 61 3.6 NW 37 46 20 25 1014.7 - 0.0
04/06:30pm 14.1 5.8 6.2 59 3.8 WNW 39 48 21 26 1014.4 - 0.0
04/06:00pm 14.1 5.4 6.2 59 3.8 WNW 41 54 22 29 1014.0 1014.0 0.0
04/05:30pm 13.9 4.6 6.0 59 3.8 WNW 44 48 24 26 1013.7 - 0.0
04/05:00pm 13.9 4.7 6.5 61 3.6 WNW 44 54 24 29 1013.6 - 0.0
04/04:30pm 14.2 4.2 6.1 58 3.9 WNW 48 56 26 30 1013.3 - 0.0
04/04:00pm 14.3 5.2 5.9 57 4.0 WNW 43 52 23 28 1013.3 - 0.0
04/03:30pm 14.4 5.4 6.5 59 3.8 WNW 43 54 23 29 1013.2 - 0.0
04/03:00pm 14.1 4.7 5.5 56 4.1 WNW 44 52 24 28 1013.0 1013.0 0.0
04/02:30pm 14.4 4.7 5.7 56 4.2 WNW 46 54 25 29 1012.6 - 0.0
04/02:00pm 14.2 5.2 6.6 60 3.7 WNW 43 50 23 27 1012.5 - 0.0
04/01:30pm 14.2 3.9 6.6 60 3.7 WNW 50 59 27 32 1012.5 - 0.0
04/01:00pm 14.2 6.0 8.2 67 3.0 WNW 41 52 22 28 1012.6 - 0.0
04/12:30pm 12.8 4.7 8.5 75 2.2 WNW 41 48 22 26 1012.9 - 0.0
04/12:00pm 13.1 4.8 9.2 77 2.0 WNW 43 54 23 29 1013.0 1013.0 0.0
04/11:30am 12.1 2.7 8.9 81 1.6 WNW 48 59 26 32 1013.0 - 0.0
04/11:00am 12.8 2.8 7.7 71 2.5 WNW 50 61 27 33 1012.9 - 0.0
04/10:30am 12.6 2.9 8.9 78 1.9 WNW 50 59 27 32 1012.6 - 0.0
04/10:00am 12.1 1.6 8.8 80 1.7 WNW 54 61 29 33 1012.2 - 0.0
04/09:30am 12.6 2.9 9.1 79 1.8 WNW 50 61 27 33 1012.1 - 0.0
04/09:00am 11.5 2.0 8.2 80 1.6 WNW 48 61 26 33 1012.0 1012.0 1.8
04/08:30am 11.2 3.5 8.8 85 1.2 WNW 39 50 21 27 1012.0 - 1.8
04/08:29am 11.1 3.4 8.7 85 1.2 WNW 39 50 21 27 1012.0 - 1.8
04/08:00am 12.6 1.9 6.4 66 3.0 W 52 61 28 33 1011.3 - 1.8
04/07:30am 12.7 0.3 4.7 58 3.7 W 59 69 32 37 1010.9 - 1.6
04/07:00am 12.9 -0.4 5.6 61 3.4 W 65 83 35 45 1009.8 - 1.6
04/06:30am 12.3 -0.2 5.9 65 3.0 W 61 83 33 45 1008.9 - 1.6
04/06:00am 12.1 0.1 8.4 78 1.8 WNW 61 80 33 43 1009.0 1009.0 1.6
04/05:50am 11.9 0.8 7.8 76 2.0 W 56 76 30 41 1008.7 - 1.6
04/05:30am 12.3 1.5 7.6 73 2.3 W 54 63 29 34 1008.4 - 1.6
04/05:00am 12.0 0.2 7.5 74 2.2 WNW 59 74 32 40 1008.0 - 1.6
04/04:38am 11.9 -1.8 7.4 74 2.2 W 69 87 37 47 1007.7 - 1.6
04/04:30am 12.5 -2.1 6.1 65 3.0 W 72 87 39 47 1007.0 - 1.6
04/04:00am 11.9 -2.5 5.1 63 3.1 W 70 82 38 44 1006.7 - 1.6
04/03:30am 11.5 -4.8 5.2 65 2.9 W 80 98 43 53 1005.8 - 1.6
04/03:02am 12.1 -2.7 6.8 70 2.5 W 74 93 40 50 1006.0 - 1.6
04/03:00am 12.4 -2.9 6.2 66 3.0 W 76 93 41 50 1005.8 1005.8 1.6
04/02:30am 12.4 -5.2 5.1 61 3.4 W 87 98 47 53 1004.8 - 1.6
04/02:05am 12.4 -2.6 7.5 72 2.4 W 76 96 41 52 1004.6 - 1.6
04/02:00am 12.3 -2.7 7.6 73 2.3 WNW 76 89 41 48 1004.7 - 1.6
04/01:30am 11.5 -4.4 7.0 74 2.2 W 80 95 43 51 1004.4 - 1.6
04/01:00am 10.3 -5.1 7.5 83 1.3 W 78 100 42 54 1004.7 - 1.6
04/12:55am 11.2 -2.3 8.2 82 1.5 WNW 69 100 37 54 1004.5 - 1.6
04/12:41am 11.0 -1.2 8.8 86 1.1 WNW 63 91 34 49 1004.7 - 1.6
04/12:36am 10.7 -5.5 8.3 85 1.2 W 83 102 45 55 1004.4 - 1.6
04/12:30am 10.6 -6.8 7.8 83 1.4 W 89 104 48 56 1004.1 - 1.4
04/12:06am 13.4 -2.8 7.4 67 2.9 WNW 82 100 44 54 1003.5 - 1.2
04/12:00am 13.1 -3.6 5.8 61 3.5 W 83 98 45 53 1003.0 1002.9 1.2
 
Date/Time
EST
Temp
°C
App
Temp
°C
Dew
Point
Rel
Hum
%
Delta-T
°C
Wind Press
QNH
hPa
Press
MSL
hPa
Rain
since 9 am
mm
Dir
 
Spd
km/h
Gust
km/h
Spd
kts
Gust
kts
03/11:38pm 13.2 -2.6 7.2 67 2.9 WNW 80 98 43 53 1002.6 - 1.2
03/11:30pm 13.1 -3.1 7.5 69 2.8 W 82 96 44 52 1002.9 - 1.2
03/11:00pm 12.3 -4.1 7.2 71 2.5 W 83 96 45 52 - - 1.2
03/10:30pm 11.9 -6.9 6.8 71 2.4 W 95 120 51 65 1002.6 - 1.2
03/10:02pm 13.6 -3.6 7.2 65 3.1 W 87 106 47 57 1002.6 - 1.2
03/10:00pm 13.5 -4.2 6.6 63 3.3 W 89 106 48 57 1002.3 - 1.2
03/09:42pm 13.4 -1.9 6.3 62 3.4 W 76 96 41 52 1002.2 - 1.2
03/09:30pm 13.3 -2.8 6.2 62 3.4 W 80 96 43 52 1002.1 - 1.2
03/09:00pm 13.4 -3.3 5.8 60 3.6 W 83 100 45 54 1001.5 1001.5 1.2
03/08:31pm 13.2 -3.4 6.5 64 3.2 W 83 102 45 55 1001.5 - 1.2
03/08:30pm 13.2 -3.8 6.1 62 3.4 W 85 102 46 55 1001.5 - 1.2
03/08:00pm 13.6 -3.0 8.2 70 2.7 W 85 100 46 54 1001.1 - 1.0
03/07:41pm 13.3 -5.1 6.9 65 3.1 W 93 111 50 60 1000.6 - 1.0
03/07:30pm 13.4 -5.6 5.8 60 3.6 W 95 109 51 59 1000.1 - 1.0
03/07:02pm 13.6 -3.4 8.0 69 2.8 W 87 107 47 58 999.5 - 1.0
03/07:00pm 13.7 -2.5 8.3 70 2.7 W 83 98 45 53 999.7 - 1.0
03/06:30pm 13.2 -3.9 9.1 76 2.1 W 89 107 48 58 999.0 - 1.0
03/06:00pm 12.6 -5.7 9.4 81 1.6 W 96 126 52 68 997.9 997.9 1.0
03/05:51pm 12.4 -8.1 9.2 81 1.6 W 107 126 58 68 997.2 - 1.0
03/05:49pm 12.0 -8.5 9.2 83 1.4 W 107 120 58 65 997.3 - 1.0
03/05:37pm 12.7 -3.1 10.9 89 0.9 W 85 106 46 57 997.5 - 1.0
03/05:30pm 12.8 -3.7 11.2 90 0.8 W 89 102 48 55 997.4 - 1.0
03/05:00pm 12.2 -4.6 11.4 95 0.4 W 91 113 49 61 996.2 - 1.0
03/04:31pm 12.3 -4.5 11.5 95 0.4 W 91 109 49 59 996.0 - 0.8
03/04:30pm 12.3 -4.9 11.5 95 0.4 W 93 109 50 59 996.1 - 0.8
03/04:15pm 12.4 -7.5 11.5 94 0.5 W 107 135 58 73 995.0 - 0.4
03/04:02pm 13.5 -8.0 11.0 85 1.3 W 115 135 62 73 992.9 - 0.0
03/04:00pm 14.3 -3.2 10.3 77 2.1 WNW 93 122 50 66 993.1 - 0.0
03/03:30pm 17.9 1.8 10.0 60 4.2 NW 85 111 46 60 992.7 - 0.0
03/03:00pm 18.4 1.9 10.0 58 4.5 WNW 87 107 47 58 992.3 992.3 0.0
03/02:33pm 18.2 5.0 10.1 59 4.3 NW 70 89 38 48 993.2 - 0.0
03/02:30pm 18.3 4.3 10.2 59 4.3 WNW 74 89 40 48 993.2 - 0.0
03/02:00pm 19.0 6.7 10.0 56 4.8 NW 65 85 35 46 993.4 - 0.0
03/01:30pm 17.5 2.3 9.7 60 4.1 WNW 80 100 43 54 993.5 - 0.0
03/01:11pm 18.3 3.7 9.1 55 4.8 WNW 76 95 41 51 993.8 - 0.0
03/01:00pm 18.2 3.5 9.0 55 4.8 WNW 76 91 41 49 994.0 - 0.0
03/12:30pm 18.0 5.9 9.4 57 4.5 NW 63 82 34 44 994.9 - 0.0
03/12:03pm 18.0 4.4 8.6 54 4.9 NW 70 89 38 48 995.1 - 0.0
03/12:00pm 18.0 4.4 8.8 55 4.8 NW 70 87 38 47 995.2 995.1 0.0
03/11:32am 18.0 5.0 8.8 55 4.8 NW 67 87 36 47 996.1 - 0.0
03/11:30am 18.0 5.4 8.8 55 4.8 NW 65 82 35 44 996.1 - 0.0
03/11:00am 18.6 4.8 9.4 55 4.9 NW 72 93 39 50 996.5 - 0.0
03/10:30am 18.5 2.4 8.7 53 5.1 NW 83 107 45 58 996.3 - 0.0
03/10:00am 18.0 2.1 8.6 54 4.9 NW 82 104 44 56 996.5 - 0.0
03/09:30am 17.8 1.8 8.9 56 4.6 NW 83 102 45 55 996.9 - 0.0
03/09:01am 17.4 2.7 8.8 57 4.5 NW 76 95 41 51 997.5 - 0.0
03/09:00am 17.4 2.3 8.8 57 4.5 NW 78 95 42 51 997.5 997.5 0.0
03/08:50am 17.4 3.0 8.3 55 4.7 NW 74 98 40 53 997.3 - 0.0
03/08:30am 17.0 4.0 8.9 59 4.2 NNW 67 82 36 44 998.0 - 0.0
03/08:03am 16.7 4.1 8.7 59 4.1 NNW 65 83 35 45 998.1 - 0.0
03/08:00am 16.5 3.9 8.7 60 4.0 NNW 65 82 35 44 998.3 - 0.0
03/07:39am 16.4 4.1 8.4 59 4.1 NW 63 82 34 44 998.5 - 0.0
03/07:30am 16.4 4.1 8.6 60 4.0 NNW 63 76 34 41 998.6 - 0.0
03/07:01am 16.4 3.7 8.4 59 4.1 NNW 65 83 35 45 998.6 - 0.0
03/07:00am 16.4 3.3 8.4 59 4.1 NNW 67 83 36 45 998.7 - 0.0
03/06:33am 16.5 2.9 8.7 60 4.0 NW 70 89 38 48 998.7 - 0.0
03/06:30am 16.5 2.5 8.7 60 4.0 NW 72 87 39 47 998.7 - 0.0
03/06:00am 16.4 2.3 8.1 58 4.3 NW 72 - 39 - - 999.2 -
03/05:57am 16.5 2.8 8.2 58 4.2 NW 70 93 38 50 999.1 - 0.0
03/05:30am 16.4 1.2 8.4 59 4.1 NW 78 93 42 50 999.4 - 0.0
03/05:00am 16.2 2.2 8.4 60 4.0 NW 72 96 39 52 999.8 - 0.0
03/04:58am 16.3 2.2 8.3 59 4.1 NW 72 95 39 51 999.7 - 0.0
03/04:30am 16.0 2.7 7.5 57 4.3 NW 67 83 36 45 1000.4 - 0.0
03/04:00am 16.0 5.7 8.0 59 4.1 NNW 52 70 28 38 1000.6 - 0.0
03/03:30am 15.9 7.6 7.7 58 4.1 NNW 41 59 22 32 1001.5 - 0.0
03/03:07am 15.8 7.0 8.1 60 3.9 NNW 44 65 24 35 1001.7 - 0.0
03/03:00am 15.8 6.2 7.8 59 4.1 NNW 48 63 26 34 1001.8 1001.8 0.0
03/02:36am 15.7 3.5 7.2 57 4.2 NW 61 80 33 43 1001.6 - 0.0
03/02:30am 15.6 3.4 7.4 58 4.1 NW 61 76 33 41 1001.5 - 0.0
03/02:00am 15.5 3.7 7.3 58 4.1 NW 59 74 32 40 1002.3 - 0.0
03/01:30am 15.4 4.9 7.2 58 4.1 NNW 52 65 28 35 1003.1 - 0.0
03/01:13am 15.4 4.7 6.4 55 4.4 NNW 52 70 28 38 1003.2 - 0.0
03/01:00am 15.1 5.4 7.4 60 3.8 NNW 48 63 26 34 1003.5 - 0.0
03/12:39am 14.9 6.5 7.5 61 3.7 NNW 41 59 22 32 1003.7 - 0.0
03/12:30am 14.6 7.2 8.3 66 3.2 NNW 37 54 20 29 1003.9 - 0.0
03/12:00am 14.8 6.8 7.6 62 3.6 NNW 39 63 21 34 1004.0 1004.0 0.0
 
Date/Time
EST
Temp
°C
App
Temp
°C
Dew
Point
Rel
Hum
%
Delta-T
°C
Wind Press
QNH
hPa
Press
MSL
hPa
Rain
since 9 am
mm
Dir
 
Spd
km/h
Gust
km/h
Spd
kts
Gust
kts
02/11:30pm 14.6 6.0 8.1 65 3.3 NNW 43 61 23 33 1004.8 - 0.0
02/11:11pm 14.4 7.0 8.4 67 3.0 NNW 37 56 20 30 1005.2 - 0.0
02/11:00pm 14.6 5.0 7.9 64 3.4 NNW 48 59 26 32 1005.2 - 0.0
02/10:30pm 14.7 4.1 6.8 59 3.9 NNW 52 70 28 38 1005.3 - 0.0
02/10:01pm 14.8 3.9 7.1 60 3.8 NNW 54 72 29 39 1005.6 - 0.0
02/10:00pm 14.8 3.5 7.1 60 3.8 NNW 56 72 30 39 1005.6 - 0.0
02/09:30pm 14.7 1.6 6.8 59 3.9 NW 65 78 35 42 1005.9 - 0.0
02/09:00pm 14.5 1.1 7.1 61 3.7 NW 67 78 36 42 1005.9 1005.9 0.0
02/08:30pm 14.8 2.0 6.4 57 4.1 NW 63 76 34 41 1006.0 - 0.0
02/08:00pm 14.8 2.3 6.1 56 4.2 NW 61 72 33 39 1006.3 - 0.0
02/07:30pm 14.8 1.6 6.4 57 4.1 NW 65 80 35 43 1006.4 - 0.0
02/07:00pm 14.8 4.1 6.4 57 4.1 NW 52 67 28 36 1006.9 - 0.0
02/06:30pm 14.8 2.7 6.1 56 4.2 NW 59 72 32 39 1006.8 - 0.0
02/06:00pm 14.9 2.8 6.0 55 4.3 NW 59 72 32 39 1006.6 1006.6 0.0
02/05:30pm 14.8 2.3 5.9 55 4.3 NW 61 76 33 41 1006.6 - 0.0
02/05:00pm 15.0 4.3 6.6 57 4.1 NW 52 70 28 38 1006.9 - 0.0
02/04:30pm 15.2 3.7 6.2 55 4.4 NW 56 69 30 37 1007.0 - 0.0
02/04:00pm 15.2 3.7 6.2 55 4.4 NW 56 76 30 41 1007.2 - 0.0
02/03:30pm 15.3 3.6 5.5 52 4.7 NW 56 78 30 42 1007.3 - 0.0
02/03:23pm 15.3 3.3 4.7 49 5.0 NW 57 78 31 42 1007.1 - 0.0
02/03:00pm 15.3 4.0 5.5 52 4.7 NW 54 70 29 38 1007.2 1007.2 0.0
02/02:30pm 15.8 4.8 6.8 55 4.4 NW 54 74 29 40 1007.4 - 0.0
02/02:02pm 15.4 2.7 5.3 51 4.8 WNW 61 80 33 43 1007.3 - 0.0
02/02:00pm 15.3 2.3 5.5 52 4.7 WNW 63 80 34 43 1007.2 - 0.0
02/01:47pm 15.2 2.5 4.9 50 4.9 NW 61 80 33 43 1007.2 - 0.0
02/01:30pm 14.9 2.7 5.4 53 4.5 NW 59 74 32 40 1007.5 - 0.0
02/01:16pm 15.1 3.3 5.9 54 4.4 NW 57 76 31 41 1007.7 - 0.0
02/01:00pm 14.9 2.8 6.2 56 4.2 WNW 59 69 32 37 1008.1 - 0.0
02/12:30pm 14.4 1.5 6.0 57 4.0 WNW 63 76 34 41 1008.4 - 0.0
02/12:00pm 14.7 1.5 6.5 58 4.0 WNW 65 78 35 42 1008.8 1008.8 0.0
02/11:30am 13.8 1.9 6.9 63 3.4 WNW 59 69 32 37 1009.3 - 0.0
02/11:00am 13.3 1.3 6.4 63 3.3 WNW 59 67 32 36 1009.9 - 0.0
02/10:30am 13.1 0.5 7.1 67 2.9 WNW 63 74 34 40 1010.2 - 0.0
02/10:00am 12.6 -0.6 6.4 66 3.0 WNW 65 76 35 41 1010.2 - 0.0
02/09:30am 12.6 0.3 6.9 68 2.8 WNW 61 74 33 40 1010.4 - 0.0
02/09:00am 12.1 -1.1 6.4 68 2.7 WNW 65 76 35 41 1010.2 1010.2 5.6
02/08:30am 11.7 -0.7 6.4 70 2.5 WNW 61 72 33 39 1010.6 - 5.6
02/08:00am 11.7 -0.6 6.8 72 2.3 WNW 61 70 33 38 1010.5 - 5.6
02/07:30am 11.5 -1.5 7.2 75 2.1 WNW 65 72 35 39 1010.1 - 5.6
02/07:00am 11.5 -1.5 7.4 76 2.0 WNW 65 74 35 40 1010.0 - 5.6
02/06:30am 11.6 -0.6 7.3 75 2.1 WNW 61 72 33 39 1010.0 - 5.6
02/06:00am 11.8 0.6 8.5 80 1.6 WNW 57 69 31 37 1010.0 1010.0 5.6
02/05:30am 11.8 -0.5 8.5 80 1.6 WNW 63 76 34 41 1009.9 - 5.6
02/05:00am 11.9 -1.7 8.6 80 1.6 WNW 70 83 38 45 1009.5 - 5.6
02/04:30am 11.4 -2.2 8.8 84 1.3 WNW 70 80 38 43 1009.3 - 5.6
02/04:00am 11.1 -1.5 9.0 87 1.0 WNW 65 76 35 41 1009.6 - 5.6
02/03:30am 11.2 0.3 9.5 89 0.9 WNW 57 74 31 40 1009.6 - 4.6
02/03:07am 11.3 -0.4 9.4 88 1.0 WNW 61 80 33 43 1009.6 - 3.6
02/03:00am 11.3 -0.4 9.4 88 1.0 WNW 61 69 33 37 1009.7 1009.7 3.2
02/02:30am 11.6 -1.7 9.2 85 1.2 WNW 69 89 37 48 1009.7 - 3.2
02/02:21am 11.9 -1.3 9.5 85 1.2 WNW 69 89 37 48 1009.4 - 3.2
02/02:00am 11.2 -0.6 8.9 86 1.1 WNW 61 72 33 39 1009.9 - 3.0
02/01:30am 12.0 1.1 9.4 84 1.3 WNW 57 70 31 38 1010.1 - 2.8
02/01:00am 12.0 -0.4 9.7 86 1.2 WNW 65 76 35 41 1009.9 - 2.8
02/12:30am 12.6 -0.9 9.1 79 1.8 W 70 93 38 50 1009.4 - 2.8
02/12:21am 12.9 -1.7 7.8 71 2.5 W 74 93 40 50 1009.3 - 2.8
02/12:00am 12.6 -0.7 9.1 79 1.8 W 69 78 37 42 1009.8 1009.8 2.8
 
Date/Time
EST
Temp
°C
App
Temp
°C
Dew
Point
Rel
Hum
%
Delta-T
°C
Wind Press
QNH
hPa
Press
MSL
hPa
Rain
since 9 am
mm
Dir
 
Spd
km/h
Gust
km/h
Spd
kts
Gust
kts
01/11:53pm 13.1 -0.3 8.6 74 2.3 W 69 87 37 47 1010.0 - 2.8

Other Formats:

Comma delimited format used in spreadsheet applications
http://www.bom.gov.au/fwo/IDT60801/IDT60801.94949.axf

JavaScript Object Notation format (JSON) in row-major order
http://www.bom.gov.au/fwo/IDT60801/IDT60801.94949.json